Time;durP1;ratioP1;P1;durP2;ratioP2;P2;SDS_P1;SDS_P2;PMS_P1;PMS_P2;Temp;Humidity;BMP_temperature;BMP_pressure;BME280_temperature;BME280_humidity;BME280_pressure;Samples;Min_cycle;Max_cycle;Signal;HPM_P1;HPM_P2
2021/03/22 00:04:46;;;;;;;34.50;5.07;;;;;;;2.94;76.26;101876.22;10265932;28;20095;-66
2021/03/22 00:09:42;;;;;;;35.78;5.05;;;;;;;2.84;76.78;101859.81;10265876;28;20055;-66
2021/03/22 00:14:38;;;;;;;30.20;4.30;;;;;;;2.80;77.09;101866.72;10265129;28;20500;-70
2021/03/22 00:19:34;;;;;;;36.25;5.38;;;;;;;2.82;77.04;101867.31;10261552;28;20084;-68
2021/03/22 00:24:30;;;;;;;23.77;4.03;;;;;;;2.89;76.79;101878.81;10268587;28;20036;-67
2021/03/22 00:29:26;;;;;;;26.20;4.40;;;;;;;2.82;77.22;101884.34;10271106;28;20056;-67
2021/03/22 00:34:22;;;;;;;32.22;4.85;;;;;;;2.67;77.40;101882.16;10299325;28;20076;-65
2021/03/22 00:39:18;;;;;;;23.17;3.75;;;;;;;2.68;77.87;101877.56;10272184;28;20132;-65
2021/03/22 00:44:14;;;;;;;39.58;6.07;;;;;;;2.73;77.65;101873.06;10256159;28;20052;-65
2021/03/22 00:49:10;;;;;;;27.67;4.82;;;;;;;2.57;77.50;101881.91;10260804;28;20394;-70
2021/03/22 00:54:06;;;;;;;34.78;5.18;;;;;;;2.77;77.37;101883.44;10259372;28;20048;-67
2021/03/22 00:59:03;;;;;;;28.70;4.22;;;;;;;2.78;77.12;101877.75;10257549;28;20059;-69
2021/03/22 01:03:59;;;;;;;24.63;3.53;;;;;;;2.70;76.64;101873.56;10263862;28;20386;-69
2021/03/22 01:08:55;;;;;;;27.08;4.35;;;;;;;2.84;77.12;101865.22;10273630;28;20152;-72
2021/03/22 01:13:55;;;;;;;35.92;7.18;;;;;;;2.69;77.21;101877.34;10272074;28;20072;-70
2021/03/22 01:18:53;;;;;;;28.00;4.82;;;;;;;2.65;77.62;101878.03;10273640;28;20075;-68
2021/03/22 01:23:49;;;;;;;35.15;4.40;;;;;;;2.63;77.78;101872.88;10267577;28;20492;-69
2021/03/22 01:28:45;;;;;;;30.98;4.55;;;;;;;2.61;77.50;101869.56;10271120;28;20138;-70
2021/03/22 01:33:43;;;;;;;36.45;6.50;;;;;;;2.67;77.97;101863.25;10272061;28;20052;-67
2021/03/22 01:38:41;;;;;;;23.30;3.78;;;;;;;2.63;77.27;101859.38;10282483;28;20500;-68
2021/03/22 01:43:37;;;;;;;28.88;4.63;;;;;;;2.55;77.38;101862.41;10271756;28;20473;-67
2021/03/22 01:48:33;;;;;;;25.15;3.95;;;;;;;2.47;78.44;101863.59;10262905;28;20041;-66
2021/03/22 01:53:29;;;;;;;28.38;4.38;;;;;;;2.47;78.20;101868.19;10269675;28;20042;-69
2021/03/22 01:58:25;;;;;;;31.10;4.85;;;;;;;2.38;78.72;101861.50;10277496;28;20048;-70
2021/03/22 02:08:30;;;;;;;31.70;4.45;;;;;;;2.49;78.37;101868.78;10850992;23;20216;-69
2021/03/22 02:13:31;;;;;;;34.17;4.90;;;;;;;2.52;78.59;101871.00;10176058;28;20077;-69
2021/03/22 02:18:53;;;;;;;30.83;4.07;;;;;;;2.44;78.97;101868.66;10186989;28;20050;-70
2021/03/22 02:24:10;;;;;;;30.35;5.97;;;;;;;2.49;78.76;101871.47;10178563;28;20046;-71
2021/03/22 02:29:30;;;;;;;33.53;4.82;;;;;;;2.43;79.42;101878.63;10188788;28;20053;-68
2021/03/22 02:34:47;;;;;;;37.80;4.65;;;;;;;2.38;79.62;101867.69;10177076;28;20077;-69
2021/03/22 02:40:10;;;;;;;33.40;4.07;;;;;;;2.34;79.84;101873.81;10182959;28;20046;-70
2021/03/22 02:45:08;;;;;;;33.95;6.57;;;;;;;2.25;80.09;101867.94;10167324;28;20054;-69
2021/03/22 02:50:11;;;;;;;40.25;5.25;;;;;;;2.34;79.75;101871.91;10174960;28;20049;-69
2021/03/22 02:55:15;;;;;;;53.20;5.83;;;;;;;2.31;80.12;101873.22;10175858;28;20043;-71
2021/03/22 03:00:34;;;;;;;31.90;6.18;;;;;;;2.15;81.20;101873.91;10184754;28;20736;-70
2021/03/22 03:05:31;;;;;;;36.00;5.15;;;;;;;2.19;81.54;101875.09;10175033;28;20050;-70
2021/03/22 03:10:28;;;;;;;31.42;5.90;;;;;;;2.12;81.47;101879.78;10174824;28;20563;-71
2021/03/22 03:15:25;;;;;;;36.63;5.88;;;;;;;2.01;82.29;101883.28;10181088;28;20096;-68
2021/03/22 03:20:27;;;;;;;40.60;4.68;;;;;;;1.85;82.63;101890.97;10179374;28;20058;-69
2021/03/22 03:25:24;;;;;;;36.83;5.20;;;;;;;1.91;82.82;101889.25;10175145;28;20060;-68
2021/03/22 03:30:25;;;;;;;38.53;5.20;;;;;;;1.85;83.30;101890.97;10167614;28;20042;-68
2021/03/22 03:35:24;;;;;;;36.58;6.03;;;;;;;1.80;83.75;101896.25;10179677;28;20466;-70
2021/03/22 03:40:27;;;;;;;31.33;4.53;;;;;;;1.76;83.46;101896.94;10181916;28;20691;-68
2021/03/22 03:45:24;;;;;;;41.97;4.93;;;;;;;1.75;84.30;101900.69;10166651;28;20041;-68
2021/03/22 03:50:37;;;;;;;;;;;;;;;1.65;84.38;101906.66;10180631;28;20132;-69
2021/03/22 03:55:33;;;;;;;39.50;6.05;;;;;;;1.65;84.86;101907.47;10176484;28;19950;-70
2021/03/22 04:00:33;;;;;;;37.17;5.55;;;;;;;1.65;85.29;101917.44;10179737;28;20050;-70
2021/03/22 04:05:30;;;;;;;30.40;5.63;;;;;;;1.70;85.02;101920.25;10172857;28;20050;-67
2021/03/22 04:10:25;;;;;;;33.33;5.03;;;;;;;1.80;85.03;101915.13;10183743;28;20058;-68
2021/03/22 04:15:21;;;;;;;29.02;6.13;;;;;;;1.83;84.63;101933.56;10185762;28;20072;-67
2021/03/22 04:20:18;;;;;;;44.58;5.18;;;;;;;1.83;84.63;101930.00;10170859;28;20182;-68
2021/03/22 04:25:14;;;;;;;26.88;4.53;;;;;;;1.79;84.72;101929.66;10178419;28;20092;-69
2021/03/22 04:30:11;;;;;;;44.85;7.85;;;;;;;1.68;84.94;101933.13;10179196;28;20073;-67
2021/03/22 04:35:08;;;;;;;32.88;5.47;;;;;;;1.65;85.71;101933.59;10179840;28;20046;-68
2021/03/22 04:40:07;;;;;;;36.22;5.13;;;;;;;1.65;85.61;101944.38;10183070;28;20089;-68
2021/03/22 04:45:06;;;;;;;32.35;4.88;;;;;;;1.84;85.13;101948.66;10176298;28;20050;-69
2021/03/22 04:50:04;;;;;;;42.63;5.53;;;;;;;1.84;85.47;101948.66;10175043;28;20550;-69
2021/03/22 04:55:00;;;;;;;36.90;5.18;;;;;;;1.94;85.28;101947.28;10181877;28;20046;-68
2021/03/22 04:59:57;;;;;;;44.25;6.28;;;;;;;1.83;85.38;101951.59;10181849;28;20054;-68
2021/03/22 05:04:53;;;;;;;34.72;5.68;;;;;;;2.06;85.48;101951.66;10171803;28;20046;-69
2021/03/22 05:09:49;;;;;;;42.03;5.75;;;;;;;2.13;84.84;101956.97;10170846;28;20054;-68
2021/03/22 05:14:45;;;;;;;38.65;5.82;;;;;;;2.08;85.11;101967.63;10178774;28;20404;-68
2021/03/22 05:19:41;;;;;;;35.15;7.07;;;;;;;2.23;85.50;101976.13;10165533;28;20045;-68
2021/03/22 05:24:37;;;;;;;36.83;7.90;;;;;;;2.35;84.83;101972.63;10163637;28;20046;-69
2021/03/22 05:29:33;;;;;;;42.55;7.63;;;;;;;2.43;84.92;101980.38;10172620;28;20136;-69
2021/03/22 05:34:29;;;;;;;40.13;7.05;;;;;;;2.23;85.19;101986.91;10169534;28;20096;-69
2021/03/22 05:39:25;;;;;;;32.22;5.68;;;;;;;2.44;85.25;101990.94;10179575;28;20113;-70
2021/03/22 05:44:53;;;;;;;29.65;6.47;;;;;;;2.51;84.82;101980.06;10174578;28;20471;-69
2021/03/22 05:50:11;;;;;;;29.67;7.68;;;;;;;2.60;84.28;101991.31;10166683;28;20572;-69
2021/03/22 05:55:26;;;;;;;43.88;10.45;;;;;;;2.54;84.80;101984.97;10180006;28;20665;-70
2021/03/22 06:00:43;;;;;;;34.53;6.50;;;;;;;2.64;84.30;101985.22;10179467;28;20054;-69
2021/03/22 06:06:17;;;;;;;29.70;6.80;;;;;;;2.72;83.42;101995.69;10175377;28;20046;-68
2021/03/22 06:11:34;;;;;;;31.50;6.50;;;;;;;2.64;83.91;102006.81;10174926;28;20104;-62
2021/03/22 06:16:38;;;;;;;28.20;7.85;;;;;;;2.74;83.33;102006.25;10178057;28;20050;-66
2021/03/22 06:21:37;;;;;;;32.42;8.25;;;;;;;2.80;82.74;102007.19;10175187;28;20041;-66
2021/03/22 06:26:48;;;;;;;39.10;6.70;;;;;;;2.76;83.69;102014.09;10168307;28;20050;-67
2021/03/22 06:31:45;;;;;;;29.58;7.72;;;;;;;2.73;83.47;102015.41;10180742;28;20058;-67
2021/03/22 06:36:41;;;;;;;33.38;7.88;;;;;;;2.81;83.68;102022.31;10168924;28;20050;-63
2021/03/22 06:41:45;;;;;;;23.23;5.82;;;;;;;2.85;82.62;102034.31;10165010;28;20070;-66
2021/03/22 06:47:04;;;;;;;29.60;7.65;;;;;;;2.84;82.58;102033.50;10169599;28;20141;-66
2021/03/22 06:52:09;;;;;;;26.67;5.95;;;;;;;2.90;82.80;102034.44;10181369;28;20046;-67
2021/03/22 06:57:14;;;;;;;28.95;6.57;;;;;;;2.99;82.31;102041.13;10177982;28;20058;-66
2021/03/22 07:02:22;;;;;;;31.75;7.65;;;;;;;3.13;81.72;102042.56;10176372;28;20052;-66
2021/03/22 07:07:22;;;;;;;20.67;6.68;;;;;;;3.25;81.39;102055.22;10178449;28;20522;-68
2021/03/22 07:12:29;;;;;;;23.90;6.50;;;;;;;3.04;80.98;102053.94;10179980;28;20188;-67
2021/03/22 07:17:26;;;;;;;23.08;6.45;;;;;;;3.10;80.78;102063.81;10177989;28;20207;-68
2021/03/22 07:22:22;;;;;;;28.30;6.72;;;;;;;3.19;80.49;102045.38;10170966;28;20588;-68
2021/03/22 07:27:34;;;;;;;27.20;8.63;;;;;;;3.31;80.16;102065.13;10176011;28;20050;-67
2021/03/22 07:32:48;;;;;;;28.70;8.30;;;;;;;3.52;79.70;102067.19;10168461;28;20050;-66
2021/03/22 07:37:53;;;;;;;24.45;6.10;;;;;;;3.51;78.34;102052.03;10163078;28;20054;-68
2021/03/22 07:43:12;;;;;;;27.83;6.22;;;;;;;3.79;78.37;102051.28;10161847;28;20367;-65
2021/03/22 07:48:43;;;;;;;22.90;6.20;;;;;;;3.83;77.92;102050.78;10168625;28;20502;-66
2021/03/22 07:53:45;;;;;;;19.52;5.28;;;;;;;4.14;77.41;102057.63;10147061;28;20474;-66
2021/03/22 07:58:57;;;;;;;25.70;5.72;;;;;;;4.22;76.79;102057.22;10162604;28;20096;-65
2021/03/22 08:04:11;;;;;;;26.98;7.70;;;;;;;4.41;75.17;102058.69;10166960;28;20160;-65
2021/03/22 08:09:38;;;;;;;19.15;5.65;;;;;;;4.34;75.14;102058.03;10168831;28;20050;-63
2021/03/22 08:14:36;;;;;;;24.95;6.28;;;;;;;4.51;75.04;102073.47;10161458;28;20704;-65
2021/03/22 08:19:57;;;;;;;22.10;6.70;;;;;;;4.06;74.46;102072.38;10164224;28;20069;-66
2021/03/22 08:25:11;;;;;;;24.52;5.43;;;;;;;4.17;74.96;102079.63;10159002;28;20061;-67
2021/03/22 08:30:10;;;;;;;24.83;5.95;;;;;;;4.56;74.51;102078.97;10163701;28;20058;-65
2021/03/22 08:35:15;;;;;;;29.27;5.65;;;;;;;4.88;74.42;102063.00;10163059;28;20042;-67
2021/03/22 08:40:16;;;;;;;16.88;4.90;;;;;;;5.18;72.58;102065.34;10160407;28;20049;-68
2021/03/22 08:45:32;;;;;;;22.20;5.30;;;;;;;5.13;70.93;102081.56;10158486;28;20050;-66
2021/03/22 08:50:33;;;;;;;20.83;5.18;;;;;;;5.28;71.19;102079.06;10164636;28;20065;-65
2021/03/22 08:55:41;;;;;;;20.75;5.18;;;;;;;5.42;70.29;102086.84;10161996;28;20062;-64
2021/03/22 09:00:41;;;;;;;21.00;5.20;;;;;;;5.20;69.46;102081.38;10168501;28;20050;-63
2021/03/22 09:05:38;;;;;;;26.73;7.00;;;;;;;5.21;69.82;102086.53;10156367;28;20054;-65
2021/03/22 09:10:40;;;;;;;17.55;5.35;;;;;;;5.49;69.18;102084.78;10159062;28;20712;-67
2021/03/22 09:15:40;;;;;;;14.85;4.32;;;;;;;5.56;68.47;102077.28;10153114;28;20128;-68
2021/03/22 09:20:45;;;;;;;20.90;4.80;;;;;;;5.69;67.71;102074.19;10158706;28;20194;-68
2021/03/22 09:25:47;;;;;;;20.75;4.82;;;;;;;5.70;68.77;102070.41;10158427;28;20508;-68
2021/03/22 09:30:54;;;;;;;14.55;4.78;;;;;;;5.99;68.86;102072.97;10167217;28;20222;-68
2021/03/22 09:36:07;;;;;;;17.17;4.38;;;;;;;6.24;66.99;102074.31;10162811;28;20061;-65
2021/03/22 09:41:03;;;;;;;17.75;5.10;;;;;;;6.50;65.39;102089.81;10160684;28;20136;-68
2021/03/22 09:46:05;;;;;;;17.65;4.50;;;;;;;6.26;64.51;102083.03;10166980;28;20042;-67
2021/03/22 09:51:04;;;;;;;15.55;4.20;;;;;;;6.57;65.38;102083.34;10168048;28;20400;-68
2021/03/22 09:56:08;;;;;;;16.08;4.63;;;;;;;6.71;63.58;102079.16;10166998;28;20074;-65
2021/03/22 10:01:30;;;;;;;11.32;3.95;;;;;;;6.75;63.79;102069.38;10160175;28;20821;-68
2021/03/22 10:06:38;;;;;;;15.38;4.18;;;;;;;7.21;62.68;102080.59;10164100;28;20046;-65
2021/03/22 10:11:41;;;;;;;13.45;4.07;;;;;;;7.32;61.33;102078.78;10160572;28;20049;-68
2021/03/22 10:16:40;;;;;;;15.57;4.20;;;;;;;7.46;60.13;102076.41;10161526;28;20074;-67
2021/03/22 10:21:43;;;;;;;13.05;3.42;;;;;;;7.47;59.42;102078.03;10178675;28;20519;-67
2021/03/22 10:26:45;;;;;;;10.30;3.35;;;;;;;7.93;58.76;102072.81;10173352;28;20058;-68
2021/03/22 10:31:41;;;;;;;11.30;3.53;;;;;;;8.77;58.74;102065.38;10177618;28;20458;-65
2021/03/22 10:36:38;;;;;;;11.13;3.45;;;;;;;9.29;55.85;102069.72;10167334;28;20066;-67
2021/03/22 10:41:36;;;;;;;12.50;3.22;;;;;;;9.57;54.34;102072.91;10166415;28;20057;-64
2021/03/22 10:46:34;;;;;;;10.07;3.58;;;;;;;9.26;52.85;102079.25;10169298;28;20431;-67
2021/03/22 10:51:44;;;;;;;10.40;3.30;;;;;;;9.19;52.53;102083.34;10168848;28;20054;-68
2021/03/22 10:56:45;;;;;;;10.45;2.92;;;;;;;9.35;51.13;102082.25;10166310;28;20145;-67
2021/03/22 11:01:42;;;;;;;10.10;2.88;;;;;;;9.52;51.46;102086.59;10170518;28;20139;-65
2021/03/22 11:06:39;;;;;;;7.03;2.17;;;;;;;10.16;48.95;102079.47;10171248;28;20938;-66
2021/03/22 11:11:36;;;;;;;9.13;2.70;;;;;;;10.38;47.73;102077.22;10164420;28;20109;-65
2021/03/22 11:16:40;;;;;;;8.68;2.28;;;;;;;10.81;46.83;102076.63;10169293;28;20137;-66
2021/03/22 11:21:39;;;;;;;10.55;2.60;;;;;;;10.48;47.44;102081.78;10167053;28;20820;-66
2021/03/22 11:26:35;;;;;;;8.65;2.40;;;;;;;10.58;46.04;102080.91;10161210;28;20065;-67
2021/03/22 11:31:39;;;;;;;9.15;2.50;;;;;;;10.48;47.05;102098.19;10159774;28;20562;-68
2021/03/22 11:36:38;;;;;;;;;;;;;;;11.09;45.31;102092.25;10173545;28;20516;-68
2021/03/22 11:41:42;;;;;;;8.60;3.03;;;;;;;10.65;45.53;102097.78;10169243;28;19938;-67
2021/03/22 11:46:38;;;;;;;10.85;3.13;;;;;;;11.01;44.76;102090.13;10171389;28;20050;-66
2021/03/22 11:51:34;;;;;;;11.30;3.33;;;;;;;11.87;43.33;102084.88;10170451;28;20054;-68
2021/03/22 11:56:40;;;;;;;7.40;3.15;;;;;;;11.55;44.52;102083.56;10171884;28;20046;-65
2021/03/22 12:01:37;;;;;;;10.73;3.33;;;;;;;10.60;46.07;102073.22;10158246;28;20468;-66
2021/03/22 12:06:58;;;;;;;6.43;2.25;;;;;;;11.51;43.52;102085.28;10170503;28;20056;-66
2021/03/22 12:11:55;;;;;;;7.47;2.50;;;;;;;10.92;44.79;102078.16;10164334;28;20042;-65
2021/03/22 12:17:01;;;;;;;8.40;3.30;;;;;;;10.69;47.51;102072.31;10168048;28;20092;-68
2021/03/22 12:21:57;;;;;;;9.70;3.50;;;;;;;10.03;48.04;102076.28;10171764;28;20046;-66
2021/03/22 12:27:12;;;;;;;10.55;3.75;;;;;;;11.56;45.92;102067.97;10174549;28;20639;-68
2021/03/22 12:32:21;;;;;;;10.65;3.33;;;;;;;10.93;46.69;102071.56;10164201;28;20078;-66
2021/03/22 12:37:22;;;;;;;12.18;3.72;;;;;;;10.42;48.33;102066.50;10176743;28;20064;-67
2021/03/22 12:42:19;;;;;;;10.95;3.70;;;;;;;10.26;50.90;102071.25;10164895;28;20132;-67
2021/03/22 12:47:20;;;;;;;11.15;3.90;;;;;;;10.29;51.78;102079.72;10167894;28;20565;-66
2021/03/22 12:52:16;;;;;;;13.65;3.92;;;;;;;9.74;53.33;102084.31;10166161;28;20057;-66
2021/03/22 12:57:26;;;;;;;9.57;3.42;;;;;;;10.35;52.13;102082.41;10165464;28;20038;-64
2021/03/22 13:02:25;;;;;;;11.75;3.17;;;;;;;9.94;51.83;102077.16;10179002;28;20125;-65
2021/03/22 13:07:22;;;;;;;9.32;3.30;;;;;;;9.51;53.79;102083.00;10176396;28;20046;-67
2021/03/22 13:12:27;;;;;;;9.98;2.20;;;;;;;10.30;51.21;102081.38;10169998;28;20488;-65
2021/03/22 13:17:29;;;;;;;9.80;2.40;;;;;;;10.06;51.64;102085.81;10170931;28;20176;-67
2021/03/22 13:22:28;;;;;;;9.65;3.03;;;;;;;9.70;52.11;102080.53;10165610;28;20046;-67
2021/03/22 13:27:27;;;;;;;8.98;3.30;;;;;;;10.54;51.66;102072.47;10167051;28;20050;-67
2021/03/22 13:32:23;;;;;;;7.38;2.45;;;;;;;10.65;52.58;102079.50;10174632;28;20042;-65
2021/03/22 13:37:22;;;;;;;6.68;2.10;;;;;;;11.06;50.47;102068.19;10169035;28;20559;-67
2021/03/22 13:42:20;;;;;;;5.97;2.63;;;;;;;10.31;52.61;102082.97;10165879;28;20164;-64
2021/03/22 13:47:16;;;;;;;7.32;2.95;;;;;;;10.08;52.78;102083.63;10163696;28;20525;-65
2021/03/22 13:52:23;;;;;;;7.30;3.63;;;;;;;10.45;53.30;102068.69;10171551;28;20129;-65
2021/03/22 13:57:20;;;;;;;7.07;2.60;;;;;;;10.43;51.76;102079.91;10163498;28;20050;-64
2021/03/22 14:02:16;;;;;;;9.75;2.72;;;;;;;9.87;53.32;102078.25;10165360;28;20061;-65
2021/03/22 14:07:13;;;;;;;9.68;3.08;;;;;;;9.44;54.53;102080.56;10159763;28;20042;-66
2021/03/22 14:12:10;;;;;;;7.85;2.17;;;;;;;9.30;53.41;102079.50;10167801;28;20054;-67
2021/03/22 14:17:06;;;;;;;6.03;1.40;;;;;;;9.36;52.08;102067.50;10167236;28;20108;-64
2021/03/22 14:22:03;;;;;;;5.93;1.67;;;;;;;9.40;52.90;102065.03;10166357;28;20046;-65
2021/03/22 14:27:00;;;;;;;7.28;1.40;;;;;;;9.34;51.85;102072.41;10162618;28;20066;-66
2021/03/22 14:31:56;;;;;;;4.25;1.58;;;;;;;9.24;53.36;102056.06;10167852;28;20401;-67
2021/03/22 14:36:53;;;;;;;7.47;1.70;;;;;;;9.12;55.15;102069.16;10164072;28;20046;-67
2021/03/22 14:41:49;;;;;;;9.10;3.08;;;;;;;8.77;57.05;102070.81;10158082;28;20081;-64
2021/03/22 14:46:45;;;;;;;10.93;2.40;;;;;;;9.18;56.48;102070.81;10160130;28;20508;-63
2021/03/22 14:51:42;;;;;;;11.05;2.63;;;;;;;9.03;57.27;102058.81;10166421;28;20773;-66
2021/03/22 14:56:38;;;;;;;6.07;1.90;;;;;;;8.31;60.52;102079.75;10172435;28;20103;-66
2021/03/22 15:01:36;;;;;;;10.18;2.42;;;;;;;8.12;61.87;102081.31;10166947;28;20625;-67
2021/03/22 15:06:34;;;;;;;10.90;2.80;;;;;;;8.13;62.49;102083.78;10175705;28;20056;-67
2021/03/22 15:11:31;;;;;;;7.30;1.92;;;;;;;7.88;64.25;102086.41;10170030;28;20092;-65
2021/03/22 15:16:27;;;;;;;11.02;1.80;;;;;;;7.90;64.81;102078.81;10172939;28;20046;-66
2021/03/22 15:21:27;;;;;;;11.70;2.58;;;;;;;7.87;65.65;102071.19;10171060;28;20050;-67
2021/03/22 15:26:24;;;;;;;13.00;2.30;;;;;;;7.64;66.65;102075.97;10174672;28;20404;-67
2021/03/22 15:31:21;;;;;;;8.20;2.10;;;;;;;7.58;66.86;102082.47;10167779;28;20076;-66
2021/03/22 15:36:20;;;;;;;8.40;1.42;;;;;;;7.43;66.62;102087.84;10164438;28;20061;-67
2021/03/22 15:41:21;;;;;;;11.80;1.90;;;;;;;7.73;65.49;102090.72;10157505;28;20617;-66
2021/03/22 15:46:17;;;;;;;10.57;2.17;;;;;;;7.42;66.26;102088.91;10158711;28;20057;-66
2021/03/22 15:51:15;;;;;;;9.05;1.70;;;;;;;7.46;65.80;102082.66;10161437;28;20105;-66
2021/03/22 15:56:12;;;;;;;10.07;1.98;;;;;;;7.59;65.38;102090.38;10157845;28;20096;-66
2021/03/22 16:01:09;;;;;;;8.63;1.90;;;;;;;7.28;65.67;102100.22;10158335;28;20559;-67
2021/03/22 16:06:05;;;;;;;6.65;1.50;;;;;;;7.15;65.85;102111.59;10155703;28;20046;-66
2021/03/22 16:11:02;;;;;;;10.30;1.63;;;;;;;7.26;66.21;102102.41;10156466;28;20073;-66
2021/03/22 16:15:59;;;;;;;11.43;1.73;;;;;;;7.37;66.40;102108.75;10165716;28;20175;-67
2021/03/22 16:20:56;;;;;;;13.70;2.55;;;;;;;7.20;67.19;102111.63;10165920;28;20049;-66
2021/03/22 16:25:52;;;;;;;12.02;1.67;;;;;;;7.22;67.63;102133.94;10160924;28;20050;-67
2021/03/22 16:30:49;;;;;;;10.65;1.70;;;;;;;6.87;69.18;102124.41;10165648;28;20053;-67
2021/03/22 16:35:50;;;;;;;10.93;2.03;;;;;;;6.77;70.28;102132.47;10161322;28;20124;-66
2021/03/22 16:41:00;;;;;;;13.52;2.63;;;;;;;6.80;70.64;102131.97;10173662;28;20053;-65
2021/03/22 16:45:58;;;;;;;14.93;2.75;;;;;;;6.57;70.95;102132.25;10163072;28;20057;-66
2021/03/22 16:50:55;;;;;;;13.15;1.83;;;;;;;6.46;71.13;102128.63;10163520;28;20054;-67
2021/03/22 16:56:04;;;;;;;12.77;2.08;;;;;;;6.53;71.12;102126.53;10163147;28;20135;-67
2021/03/22 17:01:01;;;;;;;9.55;2.10;;;;;;;6.42;71.91;102131.03;10154964;28;20070;-66
2021/03/22 17:05:57;;;;;;;12.38;2.10;;;;;;;6.29;72.61;102131.44;10160064;28;20065;-67
2021/03/22 17:11:00;;;;;;;14.10;2.83;;;;;;;6.38;71.96;102139.94;10168697;28;20511;-66
2021/03/22 17:15:57;;;;;;;8.00;2.28;;;;;;;6.39;72.82;102147.84;10155485;28;20085;-66
2021/03/22 17:20:55;;;;;;;11.80;2.28;;;;;;;6.23;74.03;102148.75;10163157;28;20042;-67
2021/03/22 17:25:55;;;;;;;13.30;1.95;;;;;;;6.36;73.06;102153.78;10162564;28;20069;-67
2021/03/22 17:31:03;;;;;;;10.75;1.90;;;;;;;6.22;73.93;102157.94;10155085;28;20061;-67
2021/03/22 17:35:59;;;;;;;6.60;1.65;;;;;;;6.23;73.78;102178.63;10161105;28;20050;-65
2021/03/22 17:41:14;;;;;;;17.20;1.55;;;;;;;6.26;74.33;102178.09;10161812;28;20046;-64
2021/03/22 17:46:12;;;;;;;7.75;1.50;;;;;;;6.15;74.30;102196.19;10155328;28;20845;-67
2021/03/22 17:51:11;;;;;;;10.80;2.20;;;;;;;6.27;74.67;102193.34;10167192;28;20053;-66
2021/03/22 17:56:08;;;;;;;11.90;2.75;;;;;;;6.30;74.64;102182.78;10168997;28;20081;-65
2021/03/22 18:01:08;;;;;;;13.70;2.20;;;;;;;6.15;75.27;102189.91;10165464;28;20046;-65
2021/03/22 18:06:05;;;;;;;14.88;2.28;;;;;;;6.29;75.31;102194.72;10163129;28;20431;-67
2021/03/22 18:11:01;;;;;;;13.13;2.60;;;;;;;6.26;75.49;102199.84;10162540;28;20502;-66
2021/03/22 18:15:57;;;;;;;14.27;2.90;;;;;;;6.23;75.57;102186.75;10161361;28;20128;-63
2021/03/22 18:20:53;;;;;;;17.55;4.78;;;;;;;6.16;75.99;102197.00;10167966;28;20459;-67
2021/03/22 18:25:49;;;;;;;9.25;2.83;;;;;;;6.18;76.36;102198.38;10170372;28;20061;-64
2021/03/22 18:30:46;;;;;;;18.73;6.03;;;;;;;6.04;76.34;102205.25;10169229;28;20105;-67
2021/03/22 18:35:48;;;;;;;16.17;3.55;;;;;;;6.04;76.49;102216.13;10168837;28;20074;-65
2021/03/22 18:40:45;;;;;;;13.05;2.85;;;;;;;5.99;76.57;102216.88;10172757;28;20057;-65
2021/03/22 18:45:42;;;;;;;14.15;2.60;;;;;;;5.98;76.75;102217.94;10172461;28;20124;-66
2021/03/22 18:50:38;;;;;;;13.70;3.22;;;;;;;5.86;76.67;102219.91;10176745;28;20199;-67
2021/03/22 18:55:36;;;;;;;14.13;3.22;;;;;;;6.03;76.73;102225.31;10161011;28;20507;-66
2021/03/22 19:00:38;;;;;;;15.18;3.65;;;;;;;6.01;76.62;102239.16;10162181;28;20137;-66
2021/03/22 19:05:34;;;;;;;12.10;2.55;;;;;;;6.02;76.36;102235.38;10167728;28;20054;-66
2021/03/22 19:10:31;;;;;;;14.95;4.10;;;;;;;5.88;76.91;102234.88;10163720;28;20042;-66
2021/03/22 19:15:27;;;;;;;11.68;2.00;;;;;;;5.74;77.14;102240.91;10166792;28;20084;-64
2021/03/22 19:20:24;;;;;;;16.20;2.10;;;;;;;5.67;77.91;102249.22;10162086;28;20054;-67
2021/03/22 19:25:20;;;;;;;8.73;1.88;;;;;;;5.66;78.08;102240.25;10165622;28;20057;-65
2021/03/22 19:30:21;;;;;;;14.52;2.00;;;;;;;5.59;78.23;102247.72;10156425;28;20057;-67
2021/03/22 19:35:24;;;;;;;11.65;2.42;;;;;;;5.73;77.26;102252.81;10160312;28;20133;-67
2021/03/22 19:40:21;;;;;;;9.40;2.13;;;;;;;5.62;77.80;102255.38;10161027;28;20053;-63
2021/03/22 19:45:26;;;;;;;10.40;2.38;;;;;;;5.63;78.61;102258.91;10163199;28;20095;-63
2021/03/22 19:50:25;;;;;;;12.00;3.17;;;;;;;5.56;78.71;102267.19;10159935;28;20057;-64
2021/03/22 19:55:27;;;;;;;9.77;2.13;;;;;;;5.73;78.27;102259.06;10159484;28;20193;-67
2021/03/22 20:00:25;;;;;;;15.43;4.30;;;;;;;5.59;78.78;102258.59;10156158;28;20076;-66
2021/03/22 20:05:24;;;;;;;7.80;2.13;;;;;;;5.62;78.82;102263.50;10152675;28;20211;-64
2021/03/22 20:10:27;;;;;;;16.40;3.60;;;;;;;5.70;78.76;102265.81;10164658;28;20058;-65
2021/03/22 20:15:43;;;;;;;12.07;3.72;;;;;;;5.79;79.27;102268.13;10164065;28;20053;-65
2021/03/22 20:20:40;;;;;;;11.13;3.95;;;;;;;5.60;80.06;102260.22;10152524;28;20774;-65
2021/03/22 20:25:37;;;;;;;12.23;5.05;;;;;;;5.65;79.88;102263.00;10155105;28;20140;-65
2021/03/22 20:30:33;;;;;;;12.15;5.85;;;;;;;5.68;80.51;102257.09;10151927;28;20104;-65
2021/03/22 20:35:29;;;;;;;14.32;5.50;;;;;;;5.64;80.83;102253.25;10163110;28;20462;-66
2021/03/22 20:40:29;;;;;;;19.20;9.18;;;;;;;5.76;81.41;102253.16;10158579;28;20073;-65
2021/03/22 20:45:27;;;;;;;18.02;8.68;;;;;;;5.60;82.63;102249.38;10158657;28;20136;-62
2021/03/22 20:50:27;;;;;;;19.65;8.70;;;;;;;5.48;83.58;102251.34;10150845;28;20092;-66
2021/03/22 20:55:25;;;;;;;20.45;7.95;;;;;;;5.34;84.30;102250.00;10155922;28;20070;-65
2021/03/22 21:00:27;;;;;;;13.93;8.40;;;;;;;5.26;85.64;102249.34;10162012;28;20046;-65
2021/03/22 21:05:27;;;;;;;14.23;9.02;;;;;;;5.22;86.24;102242.78;10163415;28;20053;-65
2021/03/22 21:10:32;;;;;;;18.15;9.20;;;;;;;5.31;85.95;102255.91;10163112;28;20085;-66
2021/03/22 21:15:29;;;;;;;15.10;7.80;;;;;;;5.13;85.76;102255.09;10166162;28;20073;-67
2021/03/22 21:20:35;;;;;;;17.60;8.52;;;;;;;5.32;85.37;102252.16;10165516;28;20070;-65
2021/03/22 21:25:33;;;;;;;13.50;8.38;;;;;;;5.21;86.24;102254.66;10169731;28;20105;-67
2021/03/22 21:30:30;;;;;;;20.08;8.98;;;;;;;5.04;87.11;102251.13;10181689;28;20049;-68
2021/03/22 21:35:28;;;;;;;13.05;7.30;;;;;;;5.12;87.34;102258.84;10175850;28;20673;-67
2021/03/22 21:40:27;;;;;;;16.70;9.02;;;;;;;5.14;86.84;102251.28;10161665;28;20050;-67
2021/03/22 21:45:26;;;;;;;13.30;7.13;;;;;;;5.23;86.81;102249.00;10164723;28;20103;-67
2021/03/22 21:50:23;;;;;;;15.57;8.05;;;;;;;5.18;86.92;102240.78;10175543;28;20042;-68
2021/03/22 21:55:19;;;;;;;14.27;8.20;;;;;;;5.06;87.26;102251.69;10175419;28;20108;-68
2021/03/22 22:00:18;;;;;;;11.02;5.90;;;;;;;5.11;87.21;102251.78;10186965;28;20120;-65
2021/03/22 22:05:17;;;;;;;12.05;7.10;;;;;;;5.17;86.78;102239.13;10221148;28;20042;-67
2021/03/22 22:10:15;;;;;;;14.45;7.28;;;;;;;5.25;85.38;102242.28;10203284;28;20179;-67
2021/03/22 22:15:17;;;;;;;12.57;7.25;;;;;;;5.21;85.87;102249.25;10197721;28;20073;-66
2021/03/22 22:20:15;;;;;;;11.68;6.60;;;;;;;5.25;85.46;102244.97;10189335;28;20145;-69
2021/03/22 22:25:12;;;;;;;15.18;6.00;;;;;;;5.35;85.11;102246.22;10179612;28;20042;-69
2021/03/22 22:30:09;;;;;;;12.70;7.10;;;;;;;5.31;85.19;102245.06;10162180;28;20112;-67
2021/03/22 22:35:15;;;;;;;16.23;8.75;;;;;;;5.24;85.06;102246.06;10166164;28;20050;-68
2021/03/22 22:40:12;;;;;;;17.65;9.13;;;;;;;5.30;84.63;102249.69;10173723;28;20115;-67
2021/03/22 22:45:09;;;;;;;18.38;8.68;;;;;;;5.19;85.37;102259.50;10174020;28;20384;-68
2021/03/22 22:50:06;;;;;;;14.82;7.90;;;;;;;5.21;84.53;102251.13;10174399;28;20046;-65
2021/03/22 22:55:05;;;;;;;14.70;8.82;;;;;;;5.15;85.17;102255.66;10168060;28;20049;-65
2021/03/22 23:00:01;;;;;;;18.75;7.80;;;;;;;5.12;85.12;102264.25;10177504;28;20085;-66
2021/03/22 23:05:19;;;;;;;14.65;7.70;;;;;;;5.15;84.79;102274.66;10160737;28;20050;-66
2021/03/22 23:10:15;;;;;;;14.00;7.73;;;;;;;5.14;85.06;102272.97;10181494;28;20042;-68
2021/03/22 23:15:36;;;;;;;21.05;7.50;;;;;;;5.16;85.03;102265.44;10176652;28;20046;-69